sensor_id;sensor_type;location;lat;lon;timestamp;P1;durP1;ratioP1;P2;durP2;ratioP2
32445;SDS011;18899;50.748;7.102;2023-10-31T00:00:22;0.63;;;0.50;;
32445;SDS011;18899;50.748;7.102;2023-10-31T00:02:48;2.28;;;0.60;;
32445;SDS011;18899;50.748;7.102;2023-10-31T00:05:13;2.53;;;0.68;;
32445;SDS011;18899;50.748;7.102;2023-10-31T00:07:39;7.20;;;0.90;;
32445;SDS011;18899;50.748;7.102;2023-10-31T00:10:05;1.92;;;1.05;;
32445;SDS011;18899;50.748;7.102;2023-10-31T00:12:31;2.67;;;1.55;;
32445;SDS011;18899;50.748;7.102;2023-10-31T00:14:57;8.80;;;1.77;;
32445;SDS011;18899;50.748;7.102;2023-10-31T00:17:23;2.35;;;1.10;;
32445;SDS011;18899;50.748;7.102;2023-10-31T00:19:48;1.95;;;0.90;;
32445;SDS011;18899;50.748;7.102;2023-10-31T00:22:14;1.17;;;0.75;;
32445;SDS011;18899;50.748;7.102;2023-10-31T00:24:39;0.93;;;0.80;;
32445;SDS011;18899;50.748;7.102;2023-10-31T00:27:05;1.73;;;0.70;;
32445;SDS011;18899;50.748;7.102;2023-10-31T00:29:30;1.15;;;0.75;;
32445;SDS011;18899;50.748;7.102;2023-10-31T00:31:56;1.15;;;0.80;;
32445;SDS011;18899;50.748;7.102;2023-10-31T00:34:21;1.58;;;1.00;;
32445;SDS011;18899;50.748;7.102;2023-10-31T00:36:47;1.08;;;0.82;;
32445;SDS011;18899;50.748;7.102;2023-10-31T00:39:12;3.15;;;0.98;;
32445;SDS011;18899;50.748;7.102;2023-10-31T00:41:39;1.13;;;0.80;;
32445;SDS011;18899;50.748;7.102;2023-10-31T00:44:09;4.85;;;1.05;;
32445;SDS011;18899;50.748;7.102;2023-10-31T00:46:35;2.33;;;0.85;;
32445;SDS011;18899;50.748;7.102;2023-10-31T00:49:00;5.97;;;0.90;;
32445;SDS011;18899;50.748;7.102;2023-10-31T00:51:26;8.90;;;0.90;;
32445;SDS011;18899;50.748;7.102;2023-10-31T00:53:51;1.35;;;0.70;;
32445;SDS011;18899;50.748;7.102;2023-10-31T00:56:17;0.82;;;0.60;;
32445;SDS011;18899;50.748;7.102;2023-10-31T00:58:42;0.68;;;0.60;;
32445;SDS011;18899;50.748;7.102;2023-10-31T01:01:08;1.40;;;0.90;;
32445;SDS011;18899;50.748;7.102;2023-10-31T01:03:33;1.48;;;0.68;;
32445;SDS011;18899;50.748;7.102;2023-10-31T01:05:59;0.77;;;0.55;;
32445;SDS011;18899;50.748;7.102;2023-10-31T01:08:24;6.10;;;0.70;;
32445;SDS011;18899;50.748;7.102;2023-10-31T01:10:50;1.30;;;0.73;;
32445;SDS011;18899;50.748;7.102;2023-10-31T01:13:16;1.98;;;0.60;;
32445;SDS011;18899;50.748;7.102;2023-10-31T01:15:41;0.90;;;0.60;;
32445;SDS011;18899;50.748;7.102;2023-10-31T01:18:07;1.15;;;0.63;;
32445;SDS011;18899;50.748;7.102;2023-10-31T01:20:32;1.75;;;0.85;;
32445;SDS011;18899;50.748;7.102;2023-10-31T01:22:58;2.55;;;0.70;;
32445;SDS011;18899;50.748;7.102;2023-10-31T01:25:23;2.50;;;0.60;;
32445;SDS011;18899;50.748;7.102;2023-10-31T01:27:49;1.17;;;0.60;;
32445;SDS011;18899;50.748;7.102;2023-10-31T01:30:15;1.33;;;0.70;;
32445;SDS011;18899;50.748;7.102;2023-10-31T01:32:40;0.85;;;0.50;;
32445;SDS011;18899;50.748;7.102;2023-10-31T01:35:06;2.53;;;0.60;;
32445;SDS011;18899;50.748;7.102;2023-10-31T01:37:32;1.80;;;0.50;;
32445;SDS011;18899;50.748;7.102;2023-10-31T01:39:57;1.85;;;0.60;;
32445;SDS011;18899;50.748;7.102;2023-10-31T01:42:23;2.40;;;0.77;;
32445;SDS011;18899;50.748;7.102;2023-10-31T01:44:49;3.05;;;0.93;;
32445;SDS011;18899;50.748;7.102;2023-10-31T01:47:14;0.88;;;0.57;;
32445;SDS011;18899;50.748;7.102;2023-10-31T01:49:40;1.65;;;0.70;;
32445;SDS011;18899;50.748;7.102;2023-10-31T01:52:06;1.00;;;0.70;;
32445;SDS011;18899;50.748;7.102;2023-10-31T01:54:32;1.27;;;0.60;;
32445;SDS011;18899;50.748;7.102;2023-10-31T01:56:58;0.80;;;0.50;;
32445;SDS011;18899;50.748;7.102;2023-10-31T01:59:25;0.85;;;0.45;;
32445;SDS011;18899;50.748;7.102;2023-10-31T02:01:52;2.08;;;0.70;;
32445;SDS011;18899;50.748;7.102;2023-10-31T02:04:19;1.60;;;0.88;;
32445;SDS011;18899;50.748;7.102;2023-10-31T02:06:45;3.40;;;1.38;;
32445;SDS011;18899;50.748;7.102;2023-10-31T02:09:10;6.55;;;0.52;;
32445;SDS011;18899;50.748;7.102;2023-10-31T02:11:36;1.38;;;0.60;;
32445;SDS011;18899;50.748;7.102;2023-10-31T02:14:02;2.67;;;0.98;;
32445;SDS011;18899;50.748;7.102;2023-10-31T02:16:28;3.55;;;0.95;;
32445;SDS011;18899;50.748;7.102;2023-10-31T02:18:53;3.17;;;0.80;;
32445;SDS011;18899;50.748;7.102;2023-10-31T02:21:19;1.90;;;0.70;;
32445;SDS011;18899;50.748;7.102;2023-10-31T02:24:01;5.35;;;0.80;;
32445;SDS011;18899;50.748;7.102;2023-10-31T02:26:31;4.25;;;1.00;;
32445;SDS011;18899;50.748;7.102;2023-10-31T02:28:57;1.33;;;0.80;;
32445;SDS011;18899;50.748;7.102;2023-10-31T02:31:23;5.63;;;1.10;;
32445;SDS011;18899;50.748;7.102;2023-10-31T02:33:49;1.25;;;0.80;;
32445;SDS011;18899;50.748;7.102;2023-10-31T02:36:14;4.78;;;1.00;;
32445;SDS011;18899;50.748;7.102;2023-10-31T02:38:40;3.20;;;0.98;;
32445;SDS011;18899;50.748;7.102;2023-10-31T02:41:05;5.38;;;0.73;;
32445;SDS011;18899;50.748;7.102;2023-10-31T02:43:31;7.53;;;0.75;;
32445;SDS011;18899;50.748;7.102;2023-10-31T02:45:57;2.45;;;1.17;;
32445;SDS011;18899;50.748;7.102;2023-10-31T02:48:23;4.72;;;1.15;;
32445;SDS011;18899;50.748;7.102;2023-10-31T02:50:49;5.93;;;1.55;;
32445;SDS011;18899;50.748;7.102;2023-10-31T02:53:15;7.65;;;2.08;;
32445;SDS011;18899;50.748;7.102;2023-10-31T02:55:43;3.53;;;1.58;;
32445;SDS011;18899;50.748;7.102;2023-10-31T02:58:08;5.22;;;1.77;;
32445;SDS011;18899;50.748;7.102;2023-10-31T03:00:34;3.72;;;1.60;;
32445;SDS011;18899;50.748;7.102;2023-10-31T03:02:59;5.30;;;1.60;;
32445;SDS011;18899;50.748;7.102;2023-10-31T03:05:25;6.00;;;1.70;;
32445;SDS011;18899;50.748;7.102;2023-10-31T03:07:50;5.72;;;1.50;;
32445;SDS011;18899;50.748;7.102;2023-10-31T03:10:17;4.80;;;1.40;;
32445;SDS011;18899;50.748;7.102;2023-10-31T03:12:44;2.67;;;1.20;;
32445;SDS011;18899;50.748;7.102;2023-10-31T03:15:09;4.57;;;1.13;;
32445;SDS011;18899;50.748;7.102;2023-10-31T03:17:35;3.92;;;1.20;;
32445;SDS011;18899;50.748;7.102;2023-10-31T03:20:01;3.08;;;0.88;;
32445;SDS011;18899;50.748;7.102;2023-10-31T03:22:27;2.78;;;0.98;;
32445;SDS011;18899;50.748;7.102;2023-10-31T03:24:53;2.83;;;0.82;;
32445;SDS011;18899;50.748;7.102;2023-10-31T03:27:18;2.72;;;0.88;;
32445;SDS011;18899;50.748;7.102;2023-10-31T03:29:44;6.07;;;0.90;;
32445;SDS011;18899;50.748;7.102;2023-10-31T03:32:09;2.10;;;0.90;;
32445;SDS011;18899;50.748;7.102;2023-10-31T03:34:35;3.70;;;1.20;;
32445;SDS011;18899;50.748;7.102;2023-10-31T03:37:00;3.10;;;1.02;;
32445;SDS011;18899;50.748;7.102;2023-10-31T03:39:26;2.88;;;1.10;;
32445;SDS011;18899;50.748;7.102;2023-10-31T03:41:52;5.30;;;1.48;;
32445;SDS011;18899;50.748;7.102;2023-10-31T03:44:17;2.08;;;0.77;;
32445;SDS011;18899;50.748;7.102;2023-10-31T03:46:43;6.47;;;0.90;;
32445;SDS011;18899;50.748;7.102;2023-10-31T03:49:08;1.58;;;0.70;;
32445;SDS011;18899;50.748;7.102;2023-10-31T03:51:34;2.33;;;0.77;;
32445;SDS011;18899;50.748;7.102;2023-10-31T03:54:00;4.00;;;1.10;;
32445;SDS011;18899;50.748;7.102;2023-10-31T03:56:25;2.08;;;0.52;;
32445;SDS011;18899;50.748;7.102;2023-10-31T03:58:51;5.30;;;0.90;;
32445;SDS011;18899;50.748;7.102;2023-10-31T04:01:16;3.45;;;0.88;;
32445;SDS011;18899;50.748;7.102;2023-10-31T04:03:42;1.13;;;0.63;;
32445;SDS011;18899;50.748;7.102;2023-10-31T04:06:08;7.03;;;0.85;;
32445;SDS011;18899;50.748;7.102;2023-10-31T04:08:34;2.47;;;1.02;;
32445;SDS011;18899;50.748;7.102;2023-10-31T04:10:59;2.28;;;0.90;;
32445;SDS011;18899;50.748;7.102;2023-10-31T04:13:25;4.95;;;1.00;;
32445;SDS011;18899;50.748;7.102;2023-10-31T04:15:50;4.68;;;1.00;;
32445;SDS011;18899;50.748;7.102;2023-10-31T04:18:16;5.28;;;1.00;;
32445;SDS011;18899;50.748;7.102;2023-10-31T04:20:42;2.25;;;0.50;;
32445;SDS011;18899;50.748;7.102;2023-10-31T04:23:07;4.70;;;0.80;;
32445;SDS011;18899;50.748;7.102;2023-10-31T04:25:33;1.95;;;0.85;;
32445;SDS011;18899;50.748;7.102;2023-10-31T04:27:59;2.08;;;0.70;;
32445;SDS011;18899;50.748;7.102;2023-10-31T04:30:25;1.85;;;0.70;;
32445;SDS011;18899;50.748;7.102;2023-10-31T04:32:51;6.15;;;0.65;;
32445;SDS011;18899;50.748;7.102;2023-10-31T04:35:17;3.92;;;0.70;;
32445;SDS011;18899;50.748;7.102;2023-10-31T04:37:42;2.47;;;0.68;;
32445;SDS011;18899;50.748;7.102;2023-10-31T04:40:08;1.42;;;0.63;;
32445;SDS011;18899;50.748;7.102;2023-10-31T04:42:35;1.90;;;0.70;;
32445;SDS011;18899;50.748;7.102;2023-10-31T04:45:00;4.13;;;0.77;;
32445;SDS011;18899;50.748;7.102;2023-10-31T04:47:26;2.20;;;0.70;;
32445;SDS011;18899;50.748;7.102;2023-10-31T04:49:52;2.10;;;0.90;;
32445;SDS011;18899;50.748;7.102;2023-10-31T04:52:17;4.32;;;0.90;;
32445;SDS011;18899;50.748;7.102;2023-10-31T04:54:44;1.00;;;0.82;;
32445;SDS011;18899;50.748;7.102;2023-10-31T04:57:10;1.92;;;0.80;;
32445;SDS011;18899;50.748;7.102;2023-10-31T04:59:36;0.80;;;0.60;;
32445;SDS011;18899;50.748;7.102;2023-10-31T05:02:02;2.08;;;0.70;;
32445;SDS011;18899;50.748;7.102;2023-10-31T05:04:28;1.88;;;0.75;;
32445;SDS011;18899;50.748;7.102;2023-10-31T05:06:54;2.40;;;0.70;;
32445;SDS011;18899;50.748;7.102;2023-10-31T05:09:19;5.65;;;0.82;;
32445;SDS011;18899;50.748;7.102;2023-10-31T05:11:45;2.47;;;0.50;;
32445;SDS011;18899;50.748;7.102;2023-10-31T05:14:10;1.30;;;0.60;;
32445;SDS011;18899;50.748;7.102;2023-10-31T05:16:42;2.58;;;0.80;;
32445;SDS011;18899;50.748;7.102;2023-10-31T05:19:08;1.30;;;0.60;;
32445;SDS011;18899;50.748;7.102;2023-10-31T05:21:34;3.05;;;0.50;;
32445;SDS011;18899;50.748;7.102;2023-10-31T05:24:00;1.75;;;0.52;;
32445;SDS011;18899;50.748;7.102;2023-10-31T05:26:27;1.30;;;0.80;;
32445;SDS011;18899;50.748;7.102;2023-10-31T05:28:56;0.75;;;0.60;;
32445;SDS011;18899;50.748;7.102;2023-10-31T05:31:25;1.58;;;0.50;;
32445;SDS011;18899;50.748;7.102;2023-10-31T05:33:51;0.80;;;0.60;;
32445;SDS011;18899;50.748;7.102;2023-10-31T05:38:46;3.67;;;0.70;;
32445;SDS011;18899;50.748;7.102;2023-10-31T05:41:12;1.02;;;0.50;;
32445;SDS011;18899;50.748;7.102;2023-10-31T05:43:38;1.75;;;0.52;;
32445;SDS011;18899;50.748;7.102;2023-10-31T05:46:03;1.08;;;0.60;;
32445;SDS011;18899;50.748;7.102;2023-10-31T05:48:30;0.65;;;0.50;;
32445;SDS011;18899;50.748;7.102;2023-10-31T05:50:56;1.33;;;0.60;;
32445;SDS011;18899;50.748;7.102;2023-10-31T05:53:21;2.03;;;0.80;;
32445;SDS011;18899;50.748;7.102;2023-10-31T05:55:47;1.13;;;0.60;;
32445;SDS011;18899;50.748;7.102;2023-10-31T05:58:12;1.77;;;0.68;;
32445;SDS011;18899;50.748;7.102;2023-10-31T06:00:38;1.77;;;0.80;;
32445;SDS011;18899;50.748;7.102;2023-10-31T06:03:03;0.80;;;0.60;;
32445;SDS011;18899;50.748;7.102;2023-10-31T06:05:29;0.60;;;0.50;;
32445;SDS011;18899;50.748;7.102;2023-10-31T06:07:55;2.15;;;0.70;;
32445;SDS011;18899;50.748;7.102;2023-10-31T06:10:21;1.75;;;0.70;;
32445;SDS011;18899;50.748;7.102;2023-10-31T06:12:46;1.33;;;0.73;;
32445;SDS011;18899;50.748;7.102;2023-10-31T06:15:12;1.95;;;0.60;;
32445;SDS011;18899;50.748;7.102;2023-10-31T06:17:38;1.42;;;0.77;;
32445;SDS011;18899;50.748;7.102;2023-10-31T06:20:04;0.93;;;0.57;;
32445;SDS011;18899;50.748;7.102;2023-10-31T06:22:32;2.75;;;0.80;;
32445;SDS011;18899;50.748;7.102;2023-10-31T06:24:57;1.60;;;0.60;;
32445;SDS011;18899;50.748;7.102;2023-10-31T06:27:23;6.90;;;1.15;;
32445;SDS011;18899;50.748;7.102;2023-10-31T06:29:48;2.95;;;0.50;;
32445;SDS011;18899;50.748;7.102;2023-10-31T06:32:14;1.95;;;0.52;;
32445;SDS011;18899;50.748;7.102;2023-10-31T06:34:40;1.35;;;0.57;;
32445;SDS011;18899;50.748;7.102;2023-10-31T06:37:05;2.78;;;0.70;;
32445;SDS011;18899;50.748;7.102;2023-10-31T06:39:31;2.58;;;0.80;;
32445;SDS011;18899;50.748;7.102;2023-10-31T06:41:57;0.93;;;0.60;;
32445;SDS011;18899;50.748;7.102;2023-10-31T06:44:23;1.35;;;0.70;;
32445;SDS011;18899;50.748;7.102;2023-10-31T06:46:48;2.30;;;0.70;;
32445;SDS011;18899;50.748;7.102;2023-10-31T06:49:14;4.63;;;0.60;;
32445;SDS011;18899;50.748;7.102;2023-10-31T06:51:40;1.85;;;0.90;;
32445;SDS011;18899;50.748;7.102;2023-10-31T06:54:06;2.17;;;0.77;;
32445;SDS011;18899;50.748;7.102;2023-10-31T06:56:31;2.15;;;0.80;;
32445;SDS011;18899;50.748;7.102;2023-10-31T06:58:57;0.73;;;0.60;;
32445;SDS011;18899;50.748;7.102;2023-10-31T07:01:22;1.77;;;0.80;;
32445;SDS011;18899;50.748;7.102;2023-10-31T07:03:48;0.95;;;0.70;;
32445;SDS011;18899;50.748;7.102;2023-10-31T07:06:14;1.48;;;0.80;;
32445;SDS011;18899;50.748;7.102;2023-10-31T07:08:39;0.95;;;0.55;;
32445;SDS011;18899;50.748;7.102;2023-10-31T07:11:05;2.30;;;0.90;;
32445;SDS011;18899;50.748;7.102;2023-10-31T07:13:30;1.95;;;0.80;;
32445;SDS011;18899;50.748;7.102;2023-10-31T07:15:56;1.92;;;0.95;;
32445;SDS011;18899;50.748;7.102;2023-10-31T07:18:21;3.92;;;0.80;;
32445;SDS011;18899;50.748;7.102;2023-10-31T07:20:47;2.78;;;0.68;;
32445;SDS011;18899;50.748;7.102;2023-10-31T07:23:12;1.77;;;0.80;;
32445;SDS011;18899;50.748;7.102;2023-10-31T07:25:38;3.85;;;0.90;;
32445;SDS011;18899;50.748;7.102;2023-10-31T07:28:04;2.55;;;1.08;;
32445;SDS011;18899;50.748;7.102;2023-10-31T07:30:29;5.68;;;1.00;;
32445;SDS011;18899;50.748;7.102;2023-10-31T07:32:55;3.70;;;0.95;;
32445;SDS011;18899;50.748;7.102;2023-10-31T07:35:20;2.95;;;0.88;;
32445;SDS011;18899;50.748;7.102;2023-10-31T07:37:46;3.03;;;0.80;;
32445;SDS011;18899;50.748;7.102;2023-10-31T07:40:11;4.50;;;0.93;;
32445;SDS011;18899;50.748;7.102;2023-10-31T07:42:37;3.08;;;0.88;;
32445;SDS011;18899;50.748;7.102;2023-10-31T07:45:03;3.50;;;1.05;;
32445;SDS011;18899;50.748;7.102;2023-10-31T07:47:29;6.30;;;1.00;;
32445;SDS011;18899;50.748;7.102;2023-10-31T07:49:54;2.22;;;0.82;;
32445;SDS011;18899;50.748;7.102;2023-10-31T07:52:20;3.78;;;1.10;;
32445;SDS011;18899;50.748;7.102;2023-10-31T07:54:45;1.27;;;0.65;;
32445;SDS011;18899;50.748;7.102;2023-10-31T07:57:11;2.35;;;1.02;;
32445;SDS011;18899;50.748;7.102;2023-10-31T07:59:36;1.30;;;0.75;;
32445;SDS011;18899;50.748;7.102;2023-10-31T08:02:02;4.88;;;1.15;;
32445;SDS011;18899;50.748;7.102;2023-10-31T08:04:28;2.45;;;1.05;;
32445;SDS011;18899;50.748;7.102;2023-10-31T08:06:54;1.52;;;0.80;;
32445;SDS011;18899;50.748;7.102;2023-10-31T08:09:20;2.53;;;0.80;;
32445;SDS011;18899;50.748;7.102;2023-10-31T08:11:46;2.35;;;0.80;;
32445;SDS011;18899;50.748;7.102;2023-10-31T08:14:12;1.20;;;0.77;;
32445;SDS011;18899;50.748;7.102;2023-10-31T08:16:38;4.68;;;1.00;;
32445;SDS011;18899;50.748;7.102;2023-10-31T08:19:03;6.85;;;1.10;;
32445;SDS011;18899;50.748;7.102;2023-10-31T08:21:29;1.20;;;0.77;;
32445;SDS011;18899;50.748;7.102;2023-10-31T08:24:00;1.77;;;0.90;;
32445;SDS011;18899;50.748;7.102;2023-10-31T08:26:27;1.50;;;0.70;;
32445;SDS011;18899;50.748;7.102;2023-10-31T08:28:52;4.75;;;0.85;;
32445;SDS011;18899;50.748;7.102;2023-10-31T08:31:18;1.02;;;0.77;;
32445;SDS011;18899;50.748;7.102;2023-10-31T08:33:44;6.75;;;0.90;;
32445;SDS011;18899;50.748;7.102;2023-10-31T08:36:10;2.63;;;0.75;;
32445;SDS011;18899;50.748;7.102;2023-10-31T08:38:35;4.25;;;0.80;;
32445;SDS011;18899;50.748;7.102;2023-10-31T08:41:01;1.15;;;0.70;;
32445;SDS011;18899;50.748;7.102;2023-10-31T08:43:26;1.65;;;0.70;;
32445;SDS011;18899;50.748;7.102;2023-10-31T08:45:52;5.93;;;0.90;;
32445;SDS011;18899;50.748;7.102;2023-10-31T08:48:17;3.13;;;0.93;;
32445;SDS011;18899;50.748;7.102;2023-10-31T08:50:43;4.85;;;1.27;;
32445;SDS011;18899;50.748;7.102;2023-10-31T08:53:09;4.30;;;1.17;;
32445;SDS011;18899;50.748;7.102;2023-10-31T08:55:35;3.88;;;1.73;;
32445;SDS011;18899;50.748;7.102;2023-10-31T08:58:00;1.73;;;1.30;;
32445;SDS011;18899;50.748;7.102;2023-10-31T09:00:26;4.20;;;1.30;;
32445;SDS011;18899;50.748;7.102;2023-10-31T09:02:53;5.18;;;1.30;;
32445;SDS011;18899;50.748;7.102;2023-10-31T09:05:18;5.00;;;1.00;;
32445;SDS011;18899;50.748;7.102;2023-10-31T09:07:44;2.33;;;1.00;;
32445;SDS011;18899;50.748;7.102;2023-10-31T09:10:11;3.08;;;1.10;;
32445;SDS011;18899;50.748;7.102;2023-10-31T09:12:37;5.57;;;0.88;;
32445;SDS011;18899;50.748;7.102;2023-10-31T09:15:03;2.13;;;0.85;;
32445;SDS011;18899;50.748;7.102;2023-10-31T09:17:29;5.93;;;0.80;;
32445;SDS011;18899;50.748;7.102;2023-10-31T09:19:55;1.75;;;0.70;;
32445;SDS011;18899;50.748;7.102;2023-10-31T09:22:21;1.58;;;0.63;;
32445;SDS011;18899;50.748;7.102;2023-10-31T09:24:46;3.70;;;0.98;;
32445;SDS011;18899;50.748;7.102;2023-10-31T09:27:12;6.97;;;1.10;;
32445;SDS011;18899;50.748;7.102;2023-10-31T09:29:37;4.82;;;1.10;;
32445;SDS011;18899;50.748;7.102;2023-10-31T09:32:03;3.05;;;0.75;;
32445;SDS011;18899;50.748;7.102;2023-10-31T09:34:30;3.28;;;1.00;;
32445;SDS011;18899;50.748;7.102;2023-10-31T09:36:56;2.38;;;0.88;;
32445;SDS011;18899;50.748;7.102;2023-10-31T09:39:22;0.95;;;0.60;;
32445;SDS011;18899;50.748;7.102;2023-10-31T09:41:48;1.27;;;0.75;;
32445;SDS011;18899;50.748;7.102;2023-10-31T09:44:13;1.50;;;0.70;;
32445;SDS011;18899;50.748;7.102;2023-10-31T09:46:39;3.13;;;1.05;;
32445;SDS011;18899;50.748;7.102;2023-10-31T09:49:06;5.88;;;0.90;;
32445;SDS011;18899;50.748;7.102;2023-10-31T09:51:33;2.38;;;0.80;;
32445;SDS011;18899;50.748;7.102;2023-10-31T09:53:58;2.05;;;0.85;;
32445;SDS011;18899;50.748;7.102;2023-10-31T09:56:26;2.33;;;1.00;;
32445;SDS011;18899;50.748;7.102;2023-10-31T09:58:59;7.78;;;0.68;;
32445;SDS011;18899;50.748;7.102;2023-10-31T10:01:29;2.83;;;0.90;;
32445;SDS011;18899;50.748;7.102;2023-10-31T10:03:54;2.80;;;0.82;;
32445;SDS011;18899;50.748;7.102;2023-10-31T10:06:21;1.65;;;0.60;;
32445;SDS011;18899;50.748;7.102;2023-10-31T10:08:48;1.70;;;0.68;;
32445;SDS011;18899;50.748;7.102;2023-10-31T10:11:14;1.13;;;0.50;;
32445;SDS011;18899;50.748;7.102;2023-10-31T10:13:40;2.33;;;0.55;;
32445;SDS011;18899;50.748;7.102;2023-10-31T10:16:05;5.35;;;0.55;;
32445;SDS011;18899;50.748;7.102;2023-10-31T10:18:32;1.92;;;0.50;;
32445;SDS011;18899;50.748;7.102;2023-10-31T10:21:04;1.88;;;0.60;;
32445;SDS011;18899;50.748;7.102;2023-10-31T10:23:31;1.40;;;0.65;;
32445;SDS011;18899;50.748;7.102;2023-10-31T10:25:58;2.05;;;0.75;;
32445;SDS011;18899;50.748;7.102;2023-10-31T10:28:24;3.17;;;0.63;;
32445;SDS011;18899;50.748;7.102;2023-10-31T10:30:51;1.10;;;0.43;;
32445;SDS011;18899;50.748;7.102;2023-10-31T10:33:18;3.03;;;0.50;;
32445;SDS011;18899;50.748;7.102;2023-10-31T10:35:45;1.35;;;0.40;;
32445;SDS011;18899;50.748;7.102;2023-10-31T10:38:11;2.20;;;0.50;;
32445;SDS011;18899;50.748;7.102;2023-10-31T10:40:40;3.70;;;1.08;;
32445;SDS011;18899;50.748;7.102;2023-10-31T10:43:11;2.55;;;0.60;;
32445;SDS011;18899;50.748;7.102;2023-10-31T10:45:37;2.47;;;0.60;;
32445;SDS011;18899;50.748;7.102;2023-10-31T10:48:06;2.22;;;0.38;;
32445;SDS011;18899;50.748;7.102;2023-10-31T10:50:37;2.13;;;0.50;;
32445;SDS011;18899;50.748;7.102;2023-10-31T10:53:19;3.65;;;0.60;;
32445;SDS011;18899;50.748;7.102;2023-10-31T10:55:51;2.08;;;0.55;;
32445;SDS011;18899;50.748;7.102;2023-10-31T11:01:10;5.73;;;0.70;;
32445;SDS011;18899;50.748;7.102;2023-10-31T11:03:36;3.00;;;0.60;;
32445;SDS011;18899;50.748;7.102;2023-10-31T11:06:02;4.38;;;0.55;;
32445;SDS011;18899;50.748;7.102;2023-10-31T11:08:28;5.93;;;0.57;;
32445;SDS011;18899;50.748;7.102;2023-10-31T11:10:55;1.10;;;0.60;;
32445;SDS011;18899;50.748;7.102;2023-10-31T11:13:22;0.63;;;0.50;;
32445;SDS011;18899;50.748;7.102;2023-10-31T11:15:49;1.58;;;0.50;;
32445;SDS011;18899;50.748;7.102;2023-10-31T11:18:20;6.35;;;0.80;;
32445;SDS011;18899;50.748;7.102;2023-10-31T11:20:46;3.92;;;0.80;;
32445;SDS011;18899;50.748;7.102;2023-10-31T11:23:12;3.60;;;0.88;;
32445;SDS011;18899;50.748;7.102;2023-10-31T11:25:44;2.80;;;0.77;;
32445;SDS011;18899;50.748;7.102;2023-10-31T11:28:15;4.57;;;0.80;;
32445;SDS011;18899;50.748;7.102;2023-10-31T11:30:42;3.30;;;0.60;;
32445;SDS011;18899;50.748;7.102;2023-10-31T11:33:13;1.25;;;0.70;;
32445;SDS011;18899;50.748;7.102;2023-10-31T11:35:40;2.25;;;0.70;;
32445;SDS011;18899;50.748;7.102;2023-10-31T11:38:08;4.00;;;0.85;;
32445;SDS011;18899;50.748;7.102;2023-10-31T11:40:36;4.13;;;0.70;;
32445;SDS011;18899;50.748;7.102;2023-10-31T11:43:22;3.67;;;0.75;;
32445;SDS011;18899;50.748;7.102;2023-10-31T11:45:47;0.82;;;0.50;;
32445;SDS011;18899;50.748;7.102;2023-10-31T11:48:14;3.45;;;0.60;;
32445;SDS011;18899;50.748;7.102;2023-10-31T11:50:40;6.07;;;0.93;;
32445;SDS011;18899;50.748;7.102;2023-10-31T11:53:13;3.92;;;0.70;;
32445;SDS011;18899;50.748;7.102;2023-10-31T11:58:20;4.53;;;0.90;;
32445;SDS011;18899;50.748;7.102;2023-10-31T12:01:02;1.75;;;0.77;;
32445;SDS011;18899;50.748;7.102;2023-10-31T12:03:39;3.17;;;0.90;;
32445;SDS011;18899;50.748;7.102;2023-10-31T12:06:06;3.58;;;0.75;;
32445;SDS011;18899;50.748;7.102;2023-10-31T12:08:33;2.30;;;0.73;;
32445;SDS011;18899;50.748;7.102;2023-10-31T12:11:05;2.13;;;0.90;;
32445;SDS011;18899;50.748;7.102;2023-10-31T12:13:32;5.18;;;0.88;;
32445;SDS011;18899;50.748;7.102;2023-10-31T12:15:59;3.22;;;0.70;;
32445;SDS011;18899;50.748;7.102;2023-10-31T12:18:26;3.75;;;0.85;;
32445;SDS011;18899;50.748;7.102;2023-10-31T12:20:52;6.28;;;0.90;;
32445;SDS011;18899;50.748;7.102;2023-10-31T12:23:18;6.32;;;0.95;;
32445;SDS011;18899;50.748;7.102;2023-10-31T12:25:53;1.88;;;0.90;;
32445;SDS011;18899;50.748;7.102;2023-10-31T12:28:23;2.83;;;0.90;;
32445;SDS011;18899;50.748;7.102;2023-10-31T12:30:50;2.78;;;0.88;;
32445;SDS011;18899;50.748;7.102;2023-10-31T12:33:19;5.60;;;1.17;;
32445;SDS011;18899;50.748;7.102;2023-10-31T12:35:46;3.78;;;0.77;;
32445;SDS011;18899;50.748;7.102;2023-10-31T12:38:13;4.85;;;0.80;;
32445;SDS011;18899;50.748;7.102;2023-10-31T12:40:40;7.70;;;0.90;;
32445;SDS011;18899;50.748;7.102;2023-10-31T12:43:07;3.65;;;0.98;;
32445;SDS011;18899;50.748;7.102;2023-10-31T12:45:34;6.72;;;1.10;;
32445;SDS011;18899;50.748;7.102;2023-10-31T12:48:04;4.28;;;1.10;;
32445;SDS011;18899;50.748;7.102;2023-10-31T12:50:34;4.55;;;0.75;;
32445;SDS011;18899;50.748;7.102;2023-10-31T12:53:05;2.08;;;0.70;;
32445;SDS011;18899;50.748;7.102;2023-10-31T12:55:37;3.15;;;0.93;;
32445;SDS011;18899;50.748;7.102;2023-10-31T12:58:04;3.33;;;1.00;;
32445;SDS011;18899;50.748;7.102;2023-10-31T13:00:30;5.93;;;1.08;;
32445;SDS011;18899;50.748;7.102;2023-10-31T13:05:33;5.82;;;1.00;;
32445;SDS011;18899;50.748;7.102;2023-10-31T13:07:59;1.60;;;0.75;;
32445;SDS011;18899;50.748;7.102;2023-10-31T13:10:28;2.03;;;0.70;;
32445;SDS011;18899;50.748;7.102;2023-10-31T13:12:54;7.10;;;1.00;;
32445;SDS011;18899;50.748;7.102;2023-10-31T13:15:20;6.57;;;0.98;;
32445;SDS011;18899;50.748;7.102;2023-10-31T13:17:50;2.67;;;0.77;;
32445;SDS011;18899;50.748;7.102;2023-10-31T13:20:17;4.47;;;0.95;;
32445;SDS011;18899;50.748;7.102;2023-10-31T13:22:44;4.40;;;0.70;;
32445;SDS011;18899;50.748;7.102;2023-10-31T13:25:11;4.72;;;0.98;;
32445;SDS011;18899;50.748;7.102;2023-10-31T13:27:37;5.03;;;1.00;;
32445;SDS011;18899;50.748;7.102;2023-10-31T13:30:04;2.72;;;0.90;;
32445;SDS011;18899;50.748;7.102;2023-10-31T13:32:30;2.03;;;0.70;;
32445;SDS011;18899;50.748;7.102;2023-10-31T13:34:56;4.65;;;1.27;;
32445;SDS011;18899;50.748;7.102;2023-10-31T13:37:22;2.92;;;0.70;;
32445;SDS011;18899;50.748;7.102;2023-10-31T13:39:47;6.25;;;0.98;;
32445;SDS011;18899;50.748;7.102;2023-10-31T13:42:13;5.45;;;0.77;;
32445;SDS011;18899;50.748;7.102;2023-10-31T13:44:42;3.10;;;0.70;;
32445;SDS011;18899;50.748;7.102;2023-10-31T13:47:08;5.72;;;1.05;;
32445;SDS011;18899;50.748;7.102;2023-10-31T13:49:34;4.03;;;0.80;;
32445;SDS011;18899;50.748;7.102;2023-10-31T13:52:00;3.33;;;0.90;;
32445;SDS011;18899;50.748;7.102;2023-10-31T13:54:25;6.10;;;1.15;;
32445;SDS011;18899;50.748;7.102;2023-10-31T13:56:51;2.55;;;0.88;;
32445;SDS011;18899;50.748;7.102;2023-10-31T13:59:17;3.35;;;0.77;;
32445;SDS011;18899;50.748;7.102;2023-10-31T14:01:45;3.88;;;0.90;;
32445;SDS011;18899;50.748;7.102;2023-10-31T14:04:11;7.13;;;1.10;;
32445;SDS011;18899;50.748;7.102;2023-10-31T14:06:41;2.28;;;0.80;;
32445;SDS011;18899;50.748;7.102;2023-10-31T14:09:08;4.78;;;0.90;;
32445;SDS011;18899;50.748;7.102;2023-10-31T14:11:35;9.82;;;1.10;;
32445;SDS011;18899;50.748;7.102;2023-10-31T14:14:01;6.15;;;0.90;;
32445;SDS011;18899;50.748;7.102;2023-10-31T14:16:38;6.05;;;1.10;;
32445;SDS011;18899;50.748;7.102;2023-10-31T14:19:04;4.05;;;0.65;;
32445;SDS011;18899;50.748;7.102;2023-10-31T14:21:32;5.72;;;1.25;;
32445;SDS011;18899;50.748;7.102;2023-10-31T14:23:58;6.45;;;0.93;;
32445;SDS011;18899;50.748;7.102;2023-10-31T14:26:24;6.20;;;1.00;;
32445;SDS011;18899;50.748;7.102;2023-10-31T14:28:49;2.58;;;0.70;;
32445;SDS011;18899;50.748;7.102;2023-10-31T14:31:15;3.13;;;0.85;;
32445;SDS011;18899;50.748;7.102;2023-10-31T14:33:41;4.05;;;1.23;;
32445;SDS011;18899;50.748;7.102;2023-10-31T14:36:08;5.70;;;1.00;;
32445;SDS011;18899;50.748;7.102;2023-10-31T14:38:35;6.40;;;1.17;;
32445;SDS011;18899;50.748;7.102;2023-10-31T14:41:01;3.03;;;1.17;;
32445;SDS011;18899;50.748;7.102;2023-10-31T14:43:27;6.95;;;1.45;;
32445;SDS011;18899;50.748;7.102;2023-10-31T14:45:53;8.63;;;1.17;;
32445;SDS011;18899;50.748;7.102;2023-10-31T14:48:19;3.72;;;1.00;;
32445;SDS011;18899;50.748;7.102;2023-10-31T14:50:46;4.05;;;0.85;;
32445;SDS011;18899;50.748;7.102;2023-10-31T14:53:12;7.15;;;1.10;;